Native Sun — WDD2862 — position and weather

sailwx.info

Track history (hours):
 
Tides and Currents Weather Stations Pressure Air Temp Water Temp Dewpoint Dewpoint Depression Visibility Wind Speed Wind Dir Waves Ship Positions

Native Sun

Owner: SVELLING, ERIC, BARNEGAT LIGHT, NJ. More information available from US FCC via Universal Licensing System and Coast Guard Vessel Documentation Center.

Last reported at 2017-Nov-16 18:46 UTC. Time now 2017-Nov-18 17:51 UTC.
Position N 39°46' W 074°06'.

Length 14 m.

Type: Fishing. MMSI: 367120830.

Date/timePositionNaut miles runAvg speedWind from/ knotsBaromVisibWave heightAir tempDewpointWater temp
2017-Nov-16 18:46N 39°46' W 074°06'2 5.5
2017-Nov-16 18:29N 39°46' W 074°04'2 3.2
2017-Nov-16 17:57N 39°47' W 074°02'0 0.2
2017-Nov-16 17:14N 39°47' W 074°02'0 1.2
2017-Nov-16 17:00N 39°47' W 074°01'0 0.6
2017-Nov-16 16:11N 39°47' W 074°01'0 0.3
2017-Nov-16 15:57N 39°47' W 074°01'1 1.0
2017-Nov-16 15:26N 39°47' W 074°01'1 1.4
2017-Nov-16 14:39N 39°47' W 074°00'2 1.2
2017-Nov-16 13:09N 39°48' W 073°58'2 5.1
2017-Nov-16 12:42N 39°47' W 074°01'1 3.3
2017-Nov-16 12:30N 39°47' W 074°02'1 0.0
2017-Nov-15 17:31N 39°47' W 074°01'0 0.4
2017-Nov-15 17:27N 39°47' W 074°01'0 0.2
2017-Nov-15 16:22N 39°47' W 074°01'1 0.5
2017-Nov-15 15:14N 39°47' W 073°60'1 0.3
2017-Nov-15 12:24N 39°48' W 073°59'2 3.1
2017-Nov-15 11:53N 39°47' W 074°01'2 4.8
2017-Nov-15 11:27N 39°46' W 074°03'3 5.7
2017-Nov-15 10:59N 39°46' W 074°07'0 0.0
2017-Nov-14 19:56N 39°46' W 074°07'3 5.6
2017-Nov-14 19:24N 39°47' W 074°03'1 2.7
2017-Nov-14 18:59N 39°47' W 074°02'0 0.6
2017-Nov-14 18:24N 39°47' W 074°01'0 0.5
2017-Nov-14 17:51N 39°47' W 074°01'0 0.4
2017-Nov-14 17:21N 39°47' W 074°01'0 0.3
2017-Nov-14 16:56N 39°47' W 074°00'1 1.7
2017-Nov-14 16:30N 39°47' W 074°01'1 1.6
2017-Nov-14 16:00N 39°47' W 074°00'0 0.4
2017-Nov-14 15:17N 39°47' W 073°60'0 0.6
2017-Nov-14 14:38N 39°47' W 073°59'0 0.4
2017-Nov-14 14:15N 39°47' W 073°59'0 0.5
2017-Nov-14 13:53N 39°48' W 073°59'0 0.2
2017-Nov-14 12:22N 39°48' W 073°59'1 3.1
2017-Nov-14 11:55N 39°47' W 074°01'2 5.7
2017-Nov-14 11:29N 39°46' W 074°03'2 0.1
2017-Nov-12 19:00N 39°46' W 074°06'5 1.2
2017-Nov-12 15:21N 39°48' W 074°01'0 0.6
2017-Nov-12 14:54N 39°48' W 074°01'0 0.1
2017-Nov-12 14:09N 39°48' W 074°01'1 3.8
2017-Nov-12 14:00N 39°48' W 074°01'0 0.3
2017-Nov-12 13:26N 39°48' W 074°01'2 3.9
2017-Nov-12 12:59N 39°48' W 073°59'3 5.1
2017-Nov-12 12:28N 39°47' W 074°02'  
2017-Nov-07 23:39N 39°46' W 074°07'0 0.0
2017-Nov-07 23:27N 39°46' W 074°07'0 0.0
2017-Nov-07 22:57N 39°46' W 074°07'0 0.0
2017-Nov-07 22:27N 39°46' W 074°07'0 0.0
2017-Nov-07 21:57N 39°46' W 074°07'0 0.0
2017-Nov-07 21:21N 39°46' W 074°07'0 0.0
2017-Nov-07 20:51N 39°46' W 074°07'0 0.0
2017-Nov-07 20:09N 39°46' W 074°07'0 0.0
2017-Nov-07 19:39N 39°46' W 074°07'0 0.0
2017-Nov-07 19:21N 39°46' W 074°07'0 0.0
2017-Nov-07 19:00N 39°46' W 074°07'0 0.0
2017-Nov-07 18:06N 39°46' W 074°07'0 0.1
2017-Nov-07 18:00N 39°46' W 074°07'0 0.0
2017-Nov-07 17:24N 39°46' W 074°07'0 0.0
2017-Nov-07 16:54N 39°46' W 074°07'0 0.0
2017-Nov-07 15:24N 39°46' W 074°07'0 0.0
2017-Nov-07 14:39N 39°46' W 074°07'0 0.0
2017-Nov-07 14:15N 39°46' W 074°07'0 0.0
2017-Nov-07 13:54N 39°46' W 074°07'0 0.0
2017-Nov-07 13:09N 39°46' W 074°07'0 0.0
2017-Nov-07 12:57N 39°46' W 074°07'0 0.0
2017-Nov-07 12:30N 39°46' W 074°07'1 1.2
2017-Nov-07 11:59N 39°46' W 074°06'1 1.7
2017-Nov-07 11:28N 39°46' W 074°05'  
Track history (hours):
 
Tides and Currents Weather Stations Pressure Air Temp Water Temp Dewpoint Dewpoint Depression Visibility Wind Speed Wind Dir Waves Ship Positions

Native Sun

Owner: SVELLING, ERIC, BARNEGAT LIGHT, NJ. More information available from US FCC via Universal Licensing System and Coast Guard Vessel Documentation Center.

Last reported at 2017-Nov-16 18:46 UTC. Time now 2017-Nov-18 17:51 UTC.
Position N 39°46' W 074°06'.

Length 14 m.

Type: Fishing. MMSI: 367120830.

Date/timePositionNaut miles runAvg speedWind from/ knotsBaromVisibWave heightAir tempDewpointWater temp
2017-Nov-16 18:46N 39°46' W 074°06'2 5.5
2017-Nov-16 18:29N 39°46' W 074°04'2 3.2
2017-Nov-16 17:57N 39°47' W 074°02'0 0.2
2017-Nov-16 17:14N 39°47' W 074°02'0 1.2
2017-Nov-16 17:00N 39°47' W 074°01'0 0.6
2017-Nov-16 16:11N 39°47' W 074°01'0 0.3
2017-Nov-16 15:57N 39°47' W 074°01'1 1.0
2017-Nov-16 15:26N 39°47' W 074°01'1 1.4
2017-Nov-16 14:39N 39°47' W 074°00'2 1.2
2017-Nov-16 13:09N 39°48' W 073°58'2 5.1
2017-Nov-16 12:42N 39°47' W 074°01'1 3.3
2017-Nov-16 12:30N 39°47' W 074°02'1 0.0
2017-Nov-15 17:31N 39°47' W 074°01'0 0.4
2017-Nov-15 17:27N 39°47' W 074°01'0 0.2
2017-Nov-15 16:22N 39°47' W 074°01'1 0.5
2017-Nov-15 15:14N 39°47' W 073°60'1 0.3
2017-Nov-15 12:24N 39°48' W 073°59'2 3.1
2017-Nov-15 11:53N 39°47' W 074°01'2 4.8
2017-Nov-15 11:27N 39°46' W 074°03'3 5.7
2017-Nov-15 10:59N 39°46' W 074°07'0 0.0
2017-Nov-14 19:56N 39°46' W 074°07'3 5.6
2017-Nov-14 19:24N 39°47' W 074°03'1 2.7
2017-Nov-14 18:59N 39°47' W 074°02'0 0.6
2017-Nov-14 18:24N 39°47' W 074°01'0 0.5
2017-Nov-14 17:51N 39°47' W 074°01'0 0.4
2017-Nov-14 17:21N 39°47' W 074°01'0 0.3
2017-Nov-14 16:56N 39°47' W 074°00'1 1.7
2017-Nov-14 16:30N 39°47' W 074°01'1 1.6
2017-Nov-14 16:00N 39°47' W 074°00'0 0.4
2017-Nov-14 15:17N 39°47' W 073°60'0 0.6
2017-Nov-14 14:38N 39°47' W 073°59'0 0.4
2017-Nov-14 14:15N 39°47' W 073°59'0 0.5
2017-Nov-14 13:53N 39°48' W 073°59'0 0.2
2017-Nov-14 12:22N 39°48' W 073°59'1 3.1
2017-Nov-14 11:55N 39°47' W 074°01'2 5.7
2017-Nov-14 11:29N 39°46' W 074°03'2 0.1
2017-Nov-12 19:00N 39°46' W 074°06'5 1.2
2017-Nov-12 15:21N 39°48' W 074°01'0 0.6
2017-Nov-12 14:54N 39°48' W 074°01'0 0.1
2017-Nov-12 14:09N 39°48' W 074°01'1 3.8
2017-Nov-12 14:00N 39°48' W 074°01'0 0.3
2017-Nov-12 13:26N 39°48' W 074°01'2 3.9
2017-Nov-12 12:59N 39°48' W 073°59'3 5.1
2017-Nov-12 12:28N 39°47' W 074°02'  
2017-Nov-07 23:39N 39°46' W 074°07'0 0.0
2017-Nov-07 23:27N 39°46' W 074°07'0 0.0
2017-Nov-07 22:57N 39°46' W 074°07'0 0.0
2017-Nov-07 22:27N 39°46' W 074°07'0 0.0
2017-Nov-07 21:57N 39°46' W 074°07'0 0.0
2017-Nov-07 21:21N 39°46' W 074°07'0 0.0
2017-Nov-07 20:51N 39°46' W 074°07'0 0.0
2017-Nov-07 20:09N 39°46' W 074°07'0 0.0
2017-Nov-07 19:39N 39°46' W 074°07'0 0.0
2017-Nov-07 19:21N 39°46' W 074°07'0 0.0
2017-Nov-07 19:00N 39°46' W 074°07'0 0.0
2017-Nov-07 18:06N 39°46' W 074°07'0 0.1
2017-Nov-07 18:00N 39°46' W 074°07'0 0.0
2017-Nov-07 17:24N 39°46' W 074°07'0 0.0
2017-Nov-07 16:54N 39°46' W 074°07'0 0.0
2017-Nov-07 15:24N 39°46' W 074°07'0 0.0
2017-Nov-07 14:39N 39°46' W 074°07'0 0.0
2017-Nov-07 14:15N 39°46' W 074°07'0 0.0
2017-Nov-07 13:54N 39°46' W 074°07'0 0.0
2017-Nov-07 13:09N 39°46' W 074°07'0 0.0
2017-Nov-07 12:57N 39°46' W 074°07'0 0.0
2017-Nov-07 12:30N 39°46' W 074°07'1 1.2
2017-Nov-07 11:59N 39°46' W 074°06'1 1.7
2017-Nov-07 11:28N 39°46' W 074°05'  

Dump ship's entire track history